createdAt,value
2022-10-15T00:01:16.872Z,15.70
2022-10-15T00:03:44.921Z,16.80
2022-10-15T00:06:14.528Z,16.60
2022-10-15T00:08:41.442Z,16.00
2022-10-15T00:11:14.509Z,16.47
2022-10-15T00:13:41.775Z,17.00
2022-10-15T00:16:13.074Z,16.07
2022-10-15T00:18:40.858Z,15.87
2022-10-15T00:21:09.031Z,18.33
2022-10-15T00:23:36.419Z,17.20
2022-10-15T00:26:05.870Z,18.87
2022-10-15T00:28:34.435Z,18.63
2022-10-15T00:33:31.437Z,18.20
2022-10-15T00:36:03.037Z,19.30
2022-10-15T00:38:30.249Z,21.20
2022-10-15T00:40:57.754Z,20.90
2022-10-15T00:43:47.743Z,21.03
2022-10-15T00:46:19.918Z,21.17
2022-10-15T00:48:49.715Z,21.50
2022-10-15T00:51:19.218Z,22.20
2022-10-15T00:53:47.122Z,22.63
2022-10-15T00:56:16.552Z,23.70
2022-10-15T00:58:43.851Z,21.07
2022-10-15T01:01:10.636Z,22.10
2022-10-15T01:03:37.595Z,20.97
2022-10-15T01:06:04.651Z,21.50
2022-10-15T01:08:33.934Z,22.17
2022-10-15T01:11:17.580Z,21.77
2022-10-15T01:13:52.913Z,21.47
2022-10-15T01:16:33.119Z,22.50
2022-10-15T01:19:24.871Z,22.97
2022-10-15T01:22:01.928Z,22.20
2022-10-15T01:24:34.600Z,22.30
2022-10-15T01:27:22.416Z,23.50
2022-10-15T01:30:00.500Z,23.70
2022-10-15T01:32:29.830Z,23.70
2022-10-15T01:35:00.267Z,24.00
2022-10-15T01:37:41.066Z,23.37
2022-10-15T01:40:23.986Z,22.83
2022-10-15T01:42:57.142Z,24.43
2022-10-15T01:45:57.275Z,24.03
2022-10-15T01:48:41.023Z,23.33
2022-10-15T01:51:10.197Z,23.90
2022-10-15T01:53:40.218Z,24.40
2022-10-15T01:56:12.120Z,23.70
2022-10-15T01:58:42.080Z,24.73
2022-10-15T02:01:09.721Z,26.80
2022-10-15T02:03:51.537Z,28.30
2022-10-15T02:06:28.781Z,25.90
2022-10-15T02:09:04.424Z,26.33
2022-10-15T02:11:42.816Z,25.60
2022-10-15T02:14:16.096Z,27.53
2022-10-15T02:16:52.193Z,28.97
2022-10-15T02:19:25.836Z,29.17
2022-10-15T02:22:01.345Z,31.17
2022-10-15T02:24:39.539Z,29.90
2022-10-15T02:27:08.513Z,28.97
2022-10-15T02:29:38.766Z,32.53
2022-10-15T02:32:07.412Z,31.53
2022-10-15T02:34:35.664Z,30.80
2022-10-15T02:37:04.524Z,28.80
2022-10-15T02:39:33.956Z,30.07
2022-10-15T02:42:01.669Z,28.27
2022-10-15T02:44:28.605Z,32.90
2022-10-15T02:46:58.078Z,33.07
2022-10-15T02:49:24.693Z,32.47
2022-10-15T02:51:51.349Z,30.83
2022-10-15T02:54:17.981Z,33.87
2022-10-15T02:56:47.156Z,32.77
2022-10-15T02:59:14.587Z,34.90
2022-10-15T03:01:41.522Z,36.60
2022-10-15T03:04:09.305Z,35.40
2022-10-15T03:06:36.563Z,35.90
2022-10-15T03:09:04.154Z,35.13
2022-10-15T03:11:32.140Z,35.40
2022-10-15T03:13:58.786Z,36.77
2022-10-15T03:16:25.327Z,36.03
2022-10-15T03:18:52.829Z,38.00
2022-10-15T03:21:19.358Z,36.77
2022-10-15T03:23:46.847Z,35.40
2022-10-15T03:26:18.763Z,36.20
2022-10-15T03:28:45.621Z,37.90
2022-10-15T03:31:19.171Z,36.47
2022-10-15T03:33:48.461Z,35.50
2022-10-15T03:36:16.853Z,34.00
2022-10-15T03:38:43.483Z,34.83
2022-10-15T03:41:13.394Z,37.37
2022-10-15T03:43:42.876Z,37.13
2022-10-15T03:46:10.429Z,38.10
2022-10-15T03:48:41.190Z,37.43
2022-10-15T03:51:09.618Z,36.07
2022-10-15T03:53:36.429Z,35.30
2022-10-15T03:56:06.788Z,34.37
2022-10-15T03:58:37.079Z,32.83
2022-10-15T04:01:13.546Z,35.47
2022-10-15T04:03:40.778Z,35.10
2022-10-15T04:06:08.413Z,34.20
2022-10-15T04:08:35.562Z,35.30
2022-10-15T04:11:16.492Z,37.20
2022-10-15T04:13:44.299Z,34.80
2022-10-15T04:16:11.204Z,34.70
2022-10-15T04:18:38.027Z,36.80
2022-10-15T04:21:04.670Z,37.20
2022-10-15T04:23:32.345Z,37.33
2022-10-15T04:26:17.655Z,37.93
2022-10-15T04:28:44.626Z,36.50
2022-10-15T04:31:11.929Z,38.17
2022-10-15T04:33:39.506Z,36.70
2022-10-15T04:36:13.468Z,38.30
2022-10-15T04:38:53.449Z,38.37
2022-10-15T04:41:46.095Z,38.40
2022-10-15T04:44:25.629Z,40.67
2022-10-15T04:46:55.849Z,38.80
2022-10-15T04:49:31.013Z,39.73
2022-10-15T04:51:57.645Z,38.23
2022-10-15T04:54:37.240Z,39.00
2022-10-15T04:57:05.570Z,37.70
2022-10-15T04:59:33.079Z,37.37
2022-10-15T05:02:18.279Z,36.97
2022-10-15T05:04:49.168Z,36.43
2022-10-15T05:07:16.227Z,34.50
2022-10-15T05:09:46.478Z,30.57
2022-10-15T05:12:13.285Z,32.60
2022-10-15T05:14:40.342Z,33.30
2022-10-15T05:17:16.626Z,33.57
2022-10-15T05:19:44.395Z,32.83
2022-10-15T05:22:17.839Z,32.20
2022-10-15T05:24:51.170Z,34.87
2022-10-15T05:27:37.366Z,36.40
2022-10-15T05:30:06.088Z,34.17
2022-10-15T05:32:54.473Z,36.07
2022-10-15T05:35:22.821Z,37.30
2022-10-15T05:37:54.735Z,36.13
2022-10-15T05:40:22.729Z,37.40
2022-10-15T05:43:02.719Z,36.67
2022-10-15T05:45:29.305Z,38.70
2022-10-15T05:48:01.781Z,34.93
2022-10-15T05:50:28.666Z,34.97
2022-10-15T05:52:56.643Z,35.30
2022-10-15T05:55:30.171Z,35.17
2022-10-15T05:58:01.353Z,33.57
2022-10-15T06:00:28.150Z,36.93
2022-10-15T06:02:54.792Z,34.00
2022-10-15T06:05:22.337Z,35.83
2022-10-15T06:07:48.894Z,32.63
2022-10-15T06:10:15.625Z,33.03
2022-10-15T06:12:42.738Z,31.63
2022-10-15T06:15:09.762Z,31.97
2022-10-15T06:17:37.422Z,34.63
2022-10-15T06:20:04.273Z,34.10
2022-10-15T06:22:31.268Z,34.00
2022-10-15T06:24:58.107Z,32.23
2022-10-15T06:27:25.373Z,32.00
2022-10-15T06:29:52.130Z,32.60
2022-10-15T06:32:18.649Z,35.23
2022-10-15T06:34:45.211Z,32.33
2022-10-15T06:37:11.787Z,32.57
2022-10-15T06:39:39.714Z,33.40
2022-10-15T06:42:06.277Z,33.70
2022-10-15T06:44:39.359Z,33.63
2022-10-15T06:47:06.212Z,32.47
2022-10-15T06:49:34.035Z,32.07
2022-10-15T06:52:03.530Z,29.63
2022-10-15T06:54:30.308Z,31.87
2022-10-15T06:56:56.816Z,30.73
2022-10-15T06:59:23.620Z,31.63
2022-10-15T07:01:50.382Z,30.97
2022-10-15T07:04:16.967Z,31.57
2022-10-15T07:06:43.767Z,32.53
2022-10-15T07:09:10.579Z,31.73
2022-10-15T07:11:37.510Z,30.90
2022-10-15T07:14:04.501Z,30.30
2022-10-15T07:16:31.323Z,31.33
2022-10-15T07:18:57.914Z,29.50
2022-10-15T07:21:24.726Z,29.37
2022-10-15T07:23:51.791Z,27.77
2022-10-15T07:26:18.383Z,28.20
2022-10-15T07:28:45.324Z,30.17
2022-10-15T07:31:12.038Z,30.20
2022-10-15T07:33:39.169Z,30.47
2022-10-15T07:36:09.314Z,27.60
2022-10-15T07:38:36.689Z,28.43
2022-10-15T07:41:04.602Z,28.03
2022-10-15T07:43:32.585Z,27.70
2022-10-15T07:45:59.100Z,27.43
2022-10-15T07:48:26.043Z,27.33
2022-10-15T07:51:00.262Z,28.33
2022-10-15T07:53:27.166Z,26.97
2022-10-15T07:56:04.608Z,28.10
2022-10-15T07:58:34.613Z,27.20
2022-10-15T08:01:02.539Z,28.17
2022-10-15T08:03:30.508Z,26.73
2022-10-15T08:06:00.117Z,28.20
2022-10-15T08:08:29.156Z,26.53
2022-10-15T08:10:55.919Z,29.00
2022-10-15T08:13:22.944Z,27.80
2022-10-15T08:15:50.641Z,27.67
2022-10-15T08:18:17.201Z,28.87
2022-10-15T08:20:43.798Z,27.40
2022-10-15T08:23:16.024Z,28.03
2022-10-15T08:25:42.793Z,26.17
2022-10-15T08:28:12.433Z,24.97
2022-10-15T08:30:38.973Z,26.67
2022-10-15T08:33:12.470Z,25.73
2022-10-15T08:35:43.588Z,25.20
2022-10-15T08:38:16.049Z,24.97
2022-10-15T08:40:55.798Z,25.80
2022-10-15T08:43:40.320Z,26.00
2022-10-15T08:46:19.654Z,26.17
2022-10-15T08:48:50.942Z,24.13
2022-10-15T08:51:21.413Z,24.90
2022-10-15T08:53:55.062Z,24.87
2022-10-15T08:56:27.214Z,25.67
2022-10-15T08:58:59.426Z,21.63
2022-10-15T09:01:44.872Z,22.37
2022-10-15T09:04:31.318Z,23.83
2022-10-15T09:07:13.470Z,23.30
2022-10-15T09:09:58.347Z,22.40
2022-10-15T09:13:16.818Z,22.87
2022-10-15T09:16:10.809Z,23.43
2022-10-15T09:18:38.706Z,23.40
2022-10-15T09:21:05.903Z,23.37
2022-10-15T09:23:33.700Z,21.83
2022-10-15T09:26:04.414Z,23.53
2022-10-15T09:28:43.410Z,22.70
2022-10-15T09:31:16.883Z,22.00
2022-10-15T09:33:50.487Z,20.03
2022-10-15T09:36:35.557Z,19.00
2022-10-15T09:39:31.087Z,20.63
2022-10-15T09:42:06.805Z,19.87
2022-10-15T09:44:39.841Z,20.43
2022-10-15T09:47:22.991Z,19.37
2022-10-15T09:49:49.513Z,20.47
2022-10-15T09:52:27.607Z,18.43
2022-10-15T09:55:02.657Z,19.43
2022-10-15T09:57:32.344Z,18.77
2022-10-15T10:00:03.902Z,19.47
2022-10-15T10:02:39.219Z,19.03
2022-10-15T10:05:32.205Z,14.90
2022-10-15T10:08:24.324Z,14.47
2022-10-15T10:10:55.496Z,16.43
2022-10-15T10:13:35.847Z,16.30
2022-10-15T10:16:08.865Z,16.63
2022-10-15T10:18:37.561Z,15.57
2022-10-15T10:21:07.022Z,17.33
2022-10-15T10:23:39.388Z,16.87
2022-10-15T10:26:09.109Z,15.73
2022-10-15T10:28:56.660Z,16.03
2022-10-15T10:31:33.430Z,17.07
2022-10-15T10:34:03.865Z,15.20
2022-10-15T10:36:34.365Z,14.30
2022-10-15T10:39:10.026Z,15.07
2022-10-15T10:42:00.418Z,14.90
2022-10-15T10:44:36.032Z,16.40
2022-10-15T10:47:10.356Z,17.97
2022-10-15T10:49:39.965Z,16.83
2022-10-15T10:52:24.299Z,17.60
2022-10-15T10:55:17.589Z,20.93
2022-10-15T10:57:50.281Z,18.87
2022-10-15T11:00:52.702Z,19.70
2022-10-15T11:03:27.990Z,19.93
2022-10-15T11:06:19.456Z,21.00
2022-10-15T11:09:11.054Z,19.30
2022-10-15T11:11:52.892Z,20.70
2022-10-15T11:14:33.752Z,20.17
2022-10-15T11:17:07.705Z,20.63
2022-10-15T11:20:05.709Z,22.07
2022-10-15T11:22:49.406Z,21.77
2022-10-15T11:25:21.703Z,20.27
2022-10-15T11:28:10.464Z,20.23
2022-10-15T11:30:58.589Z,21.13
2022-10-15T11:33:41.782Z,21.30
2022-10-15T11:36:39.067Z,21.60
2022-10-15T11:39:41.243Z,22.07
2022-10-15T11:42:24.925Z,20.93
2022-10-15T11:45:18.491Z,19.80
2022-10-15T11:47:56.085Z,19.40
2022-10-15T11:50:32.343Z,20.23
2022-10-15T11:53:35.842Z,19.23
2022-10-15T11:56:26.645Z,19.63
2022-10-15T11:59:03.155Z,19.10
2022-10-15T12:01:37.314Z,17.97
2022-10-15T12:04:19.102Z,18.90
2022-10-15T12:06:51.448Z,18.27
2022-10-15T12:09:40.970Z,17.77
2022-10-15T12:12:39.701Z,15.67
2022-10-15T12:15:21.673Z,16.43
2022-10-15T12:17:58.676Z,16.43
2022-10-15T12:20:27.038Z,18.13
2022-10-15T12:22:57.806Z,16.87
2022-10-15T12:25:41.775Z,16.27
2022-10-15T12:28:08.237Z,16.07
2022-10-15T12:30:37.571Z,16.50
2022-10-15T12:33:24.414Z,15.27
2022-10-15T12:35:57.218Z,16.23
2022-10-15T12:38:33.348Z,16.30
2022-10-15T12:41:08.079Z,15.20
2022-10-15T12:43:38.375Z,16.47
2022-10-15T12:46:07.583Z,14.70
2022-10-15T12:48:47.211Z,15.30
2022-10-15T12:51:16.711Z,15.63
2022-10-15T12:53:45.167Z,13.70
2022-10-15T12:56:11.869Z,12.93
2022-10-15T12:58:42.076Z,13.60
2022-10-15T13:01:14.438Z,12.63
2022-10-15T13:03:53.497Z,12.33
2022-10-15T13:06:19.971Z,11.60
2022-10-15T13:09:12.144Z,11.20
2022-10-15T13:14:39.910Z,12.00
2022-10-15T13:17:15.781Z,11.20
2022-10-15T13:20:04.481Z,12.27
2022-10-15T13:22:33.062Z,12.60
2022-10-15T13:25:00.021Z,13.00
2022-10-15T13:27:29.341Z,11.53
2022-10-15T13:30:02.109Z,11.83
2022-10-15T13:32:43.589Z,11.40
2022-10-15T13:35:13.395Z,11.47
2022-10-15T13:37:42.753Z,11.77
2022-10-15T13:40:22.945Z,11.13
2022-10-15T13:43:00.515Z,10.83
2022-10-15T13:45:27.605Z,9.30
2022-10-15T13:47:54.925Z,10.43
2022-10-15T13:50:27.753Z,9.10
2022-10-15T13:53:00.305Z,9.03
2022-10-15T13:55:29.054Z,9.43
2022-10-15T13:58:01.718Z,9.20
2022-10-15T14:00:32.411Z,8.93
2022-10-15T14:03:22.093Z,8.40
2022-10-15T14:05:51.024Z,7.30
2022-10-15T14:08:19.258Z,6.20
2022-10-15T14:10:46.936Z,5.70
2022-10-15T14:13:13.729Z,5.13
2022-10-15T14:15:41.333Z,5.30
2022-10-15T14:18:08.659Z,5.50
2022-10-15T14:20:35.221Z,5.80
2022-10-15T14:23:02.160Z,5.70
2022-10-15T14:25:28.755Z,5.60
2022-10-15T14:27:55.713Z,4.63
2022-10-15T14:30:30.557Z,5.13
2022-10-15T14:32:57.287Z,7.30
2022-10-15T14:35:25.447Z,5.70
2022-10-15T14:38:02.447Z,5.80
2022-10-15T14:40:29.348Z,5.67
2022-10-15T14:42:55.814Z,6.30
2022-10-15T14:45:31.686Z,5.77
2022-10-15T14:48:01.029Z,5.20
2022-10-15T14:50:33.717Z,6.20
2022-10-15T14:53:05.254Z,5.23
2022-10-15T14:55:38.148Z,5.47
2022-10-15T14:58:09.868Z,5.77
2022-10-15T15:00:43.050Z,4.80
2022-10-15T15:03:40.011Z,5.27
2022-10-15T15:06:07.576Z,4.47
2022-10-15T15:08:34.134Z,4.23
2022-10-15T15:11:03.909Z,4.40
2022-10-15T15:13:38.667Z,4.10
2022-10-15T15:16:05.549Z,4.30
2022-10-15T15:18:32.172Z,3.90
2022-10-15T15:21:03.122Z,3.43
2022-10-15T15:23:30.269Z,3.53
2022-10-15T15:25:57.043Z,3.30
2022-10-15T15:28:26.585Z,3.50
2022-10-15T15:30:58.663Z,4.00
2022-10-15T15:33:28.155Z,3.80
2022-10-15T15:36:05.280Z,4.33
2022-10-15T15:38:32.178Z,4.47
2022-10-15T15:41:13.070Z,3.80
2022-10-15T15:43:40.012Z,4.53
2022-10-15T15:46:07.195Z,4.23
2022-10-15T15:48:34.161Z,3.57
2022-10-15T15:51:07.381Z,3.63
2022-10-15T15:53:35.257Z,3.40
2022-10-15T15:56:01.868Z,3.43
2022-10-15T15:58:28.854Z,3.20
2022-10-15T16:00:55.381Z,5.00
2022-10-15T16:03:21.967Z,3.67
2022-10-15T16:08:21.476Z,3.87
2022-10-15T16:10:48.032Z,4.50
2022-10-15T16:13:14.682Z,4.00
2022-10-15T16:15:41.689Z,3.07
2022-10-15T16:18:09.177Z,3.40
2022-10-15T16:20:39.221Z,3.17
2022-10-15T16:23:05.898Z,3.97
2022-10-15T16:25:32.983Z,3.13
2022-10-15T16:28:02.037Z,3.00
2022-10-15T16:30:29.033Z,2.80
2022-10-15T16:32:55.848Z,5.77
2022-10-15T16:35:22.785Z,4.40
2022-10-15T16:37:52.461Z,3.50
2022-10-15T16:40:19.449Z,4.33
2022-10-15T16:42:46.193Z,4.13
2022-10-15T16:45:12.766Z,4.70
2022-10-15T16:47:39.374Z,5.10
2022-10-15T16:50:06.773Z,4.87
2022-10-15T16:52:34.145Z,4.27
2022-10-15T16:55:00.652Z,4.20
2022-10-15T16:57:27.222Z,3.97
2022-10-15T16:59:53.773Z,5.63
2022-10-15T17:02:20.297Z,4.70
2022-10-15T17:04:46.938Z,4.30
2022-10-15T17:07:13.462Z,4.10
2022-10-15T17:09:40.238Z,3.80
2022-10-15T17:12:06.879Z,4.30
2022-10-15T17:14:33.441Z,4.23
2022-10-15T17:17:00.459Z,4.93
2022-10-15T17:19:30.383Z,5.60
2022-10-15T17:21:59.857Z,4.40
2022-10-15T17:24:26.410Z,4.53
2022-10-15T17:26:54.659Z,5.90
2022-10-15T17:29:22.916Z,5.43
2022-10-15T17:31:50.774Z,4.20
2022-10-15T17:34:17.966Z,3.97
2022-10-15T17:36:47.282Z,3.73
2022-10-15T17:39:19.985Z,6.70
2022-10-15T17:41:47.563Z,4.50
2022-10-15T17:44:14.637Z,3.70
2022-10-15T17:46:41.887Z,3.40
2022-10-15T17:49:11.147Z,3.17
2022-10-15T17:51:39.375Z,3.23
2022-10-15T17:54:06.164Z,3.00
2022-10-15T17:56:34.691Z,2.90
2022-10-15T17:59:04.660Z,2.80
2022-10-15T18:01:56.230Z,3.00
2022-10-15T18:04:20.436Z,3.00
2022-10-15T18:06:46.971Z,3.50
2022-10-15T18:09:24.501Z,3.70
2022-10-15T18:11:55.555Z,3.23
2022-10-15T18:14:28.741Z,4.10
2022-10-15T18:16:55.720Z,3.60
2022-10-15T18:19:22.354Z,4.67
2022-10-15T18:21:49.675Z,4.90
2022-10-15T18:24:21.061Z,4.40
2022-10-15T18:26:48.854Z,3.63
2022-10-15T18:29:15.827Z,3.70
2022-10-15T18:31:43.459Z,3.60
2022-10-15T18:34:10.264Z,3.83
2022-10-15T18:36:37.748Z,3.43
2022-10-15T18:39:04.498Z,2.87
2022-10-15T18:41:33.647Z,3.20
2022-10-15T18:44:03.298Z,2.90
2022-10-15T18:46:33.923Z,2.73
2022-10-15T18:49:02.225Z,2.80
2022-10-15T18:51:31.244Z,3.30
2022-10-15T18:54:00.019Z,2.90
2022-10-15T18:56:26.839Z,2.73
2022-10-15T18:58:54.538Z,3.00
2022-10-15T19:01:36.522Z,3.00
2022-10-15T19:04:06.361Z,2.60
2022-10-15T19:06:39.757Z,2.53
2022-10-15T19:09:09.033Z,2.40
2022-10-15T19:11:36.508Z,3.13
2022-10-15T19:14:03.733Z,2.90
2022-10-15T19:16:30.516Z,3.00
2022-10-15T19:19:03.028Z,3.03
2022-10-15T19:21:29.676Z,3.13
2022-10-15T19:23:56.506Z,2.50
2022-10-15T19:26:23.345Z,2.60
2022-10-15T19:28:51.976Z,2.83
2022-10-15T19:31:27.946Z,2.87
2022-10-15T19:33:55.646Z,1.93
2022-10-15T19:36:24.286Z,2.00
2022-10-15T19:38:51.492Z,2.23
2022-10-15T19:41:19.006Z,2.57
2022-10-15T19:43:45.877Z,2.00
2022-10-15T19:46:12.464Z,2.17
2022-10-15T19:48:41.393Z,2.50
2022-10-15T19:51:08.337Z,2.70
2022-10-15T19:53:35.443Z,3.10
2022-10-15T19:56:08.157Z,2.97
2022-10-15T19:58:35.405Z,2.97
2022-10-15T20:01:02.844Z,2.90
2022-10-15T20:03:30.218Z,2.57
2022-10-15T20:06:00.465Z,3.37
2022-10-15T20:08:27.085Z,3.13
2022-10-15T20:10:53.710Z,3.23
2022-10-15T20:13:22.619Z,2.77
2022-10-15T20:15:51.643Z,3.23
2022-10-15T20:18:19.397Z,3.70
2022-10-15T20:20:46.513Z,4.27
2022-10-15T20:23:15.506Z,3.40
2022-10-15T20:25:42.826Z,3.67
2022-10-15T20:28:11.111Z,4.13
2022-10-15T20:30:38.850Z,2.83
2022-10-15T20:33:06.770Z,3.27
2022-10-15T20:35:35.014Z,3.40
2022-10-15T20:38:02.056Z,4.00
2022-10-15T20:40:29.133Z,3.77
2022-10-15T20:42:55.986Z,4.00
2022-10-15T20:45:23.379Z,4.87
2022-10-15T20:47:51.874Z,5.23
2022-10-15T20:50:24.637Z,5.27
2022-10-15T20:52:51.817Z,5.40
2022-10-15T20:55:18.853Z,4.97
2022-10-15T20:57:46.016Z,4.67
2022-10-15T21:00:13.564Z,5.13
2022-10-15T21:02:41.565Z,5.37
2022-10-15T21:05:09.431Z,5.37
2022-10-15T21:07:36.107Z,5.83
2022-10-15T21:10:02.874Z,5.03
2022-10-15T21:12:29.749Z,6.20
2022-10-15T21:14:57.084Z,6.30
2022-10-15T21:17:24.476Z,5.80
2022-10-15T21:19:52.979Z,5.47
2022-10-15T21:22:20.548Z,5.63
2022-10-15T21:24:47.621Z,6.50
2022-10-15T21:27:14.539Z,6.10
2022-10-15T21:29:42.717Z,6.40
2022-10-15T21:32:09.561Z,6.57
2022-10-15T21:34:36.193Z,7.87
2022-10-15T21:37:03.072Z,7.30
2022-10-15T21:39:29.793Z,8.30
2022-10-15T21:41:56.450Z,7.30
2022-10-15T21:44:23.027Z,7.27
2022-10-15T21:46:49.593Z,6.70
2022-10-15T21:49:16.139Z,5.50
2022-10-15T21:51:42.702Z,6.03
2022-10-15T21:54:09.472Z,6.17
2022-10-15T21:56:36.778Z,5.93
2022-10-15T21:59:04.413Z,6.17
2022-10-15T22:01:35.234Z,5.60
2022-10-15T22:04:04.647Z,5.90
2022-10-15T22:06:32.113Z,5.33
2022-10-15T22:08:59.781Z,5.73
2022-10-15T22:11:29.168Z,4.57
2022-10-15T22:13:58.233Z,5.50
2022-10-15T22:16:27.026Z,4.50
2022-10-15T22:18:55.054Z,5.20
2022-10-15T22:21:25.411Z,4.17
2022-10-15T22:23:59.755Z,4.60
2022-10-15T22:26:32.801Z,3.67
2022-10-15T22:29:01.995Z,4.30
2022-10-15T22:31:29.449Z,4.27
2022-10-15T22:33:58.400Z,3.50
2022-10-15T22:36:27.915Z,3.63
2022-10-15T22:41:30.454Z,3.33
2022-10-15T22:43:57.775Z,3.33
2022-10-15T22:46:25.059Z,3.70
2022-10-15T22:48:53.651Z,3.60
2022-10-15T22:51:21.342Z,3.87
2022-10-15T22:53:48.130Z,3.60
2022-10-15T22:56:18.082Z,2.97
2022-10-15T22:58:45.665Z,3.53
2022-10-15T23:01:14.073Z,3.13
2022-10-15T23:03:43.383Z,2.97
2022-10-15T23:06:10.817Z,2.90
2022-10-15T23:08:37.898Z,3.00
2022-10-15T23:11:19.222Z,2.90
2022-10-15T23:13:47.909Z,2.63
2022-10-15T23:16:17.834Z,2.67
2022-10-15T23:18:47.207Z,2.90
2022-10-15T23:21:17.074Z,2.27
2022-10-15T23:23:44.718Z,2.10
2022-10-15T23:26:13.711Z,2.43
2022-10-15T23:28:41.586Z,2.17
2022-10-15T23:31:15.223Z,1.80
2022-10-15T23:33:41.918Z,1.63
2022-10-15T23:36:09.467Z,1.27
2022-10-15T23:38:35.992Z,1.67
2022-10-15T23:41:07.547Z,1.70
2022-10-15T23:43:34.657Z,1.87
2022-10-15T23:46:01.301Z,1.57
2022-10-15T23:48:28.770Z,1.60
2022-10-15T23:51:00.890Z,1.77
2022-10-15T23:53:32.673Z,1.50
2022-10-15T23:56:01.773Z,1.33
2022-10-15T23:58:28.432Z,1.53
